Terminal Aerodrome Forecast
Issued by NWS

Home | Current Version | Previous Version | Text Only | Print | Product List | Glossary On
Versions: 1 2 3 4 5 6 7 8 9 10 11 12
000
FTUS45 KVEF 281100
TAFBIH
TAF
KBIH 281120Z 2812/2912 33006KT P6SM FEW250
     FM282000 17008KT P6SM FEW250
     FM290300 33007KT P6SM FEW250=

USA.gov is the U.S. government's official web portal to all federal, state and local government web resources and services.